createdAt,value
2018-12-10T00:00:21.467Z,6.37
2018-12-10T00:01:21.491Z,6.40
2018-12-10T00:02:21.454Z,6.30
2018-12-10T00:03:21.434Z,6.34
2018-12-10T00:04:21.427Z,6.28
2018-12-10T00:05:21.412Z,6.36
2018-12-10T00:06:21.402Z,6.30
2018-12-10T00:07:21.427Z,6.19
2018-12-10T00:08:21.381Z,6.37
2018-12-10T00:09:21.370Z,6.28
2018-12-10T00:10:21.359Z,6.36
2018-12-10T00:11:21.349Z,6.30
2018-12-10T00:12:21.340Z,6.21
2018-12-10T00:13:21.363Z,6.30
2018-12-10T00:14:21.327Z,6.22
2018-12-10T00:15:21.307Z,6.27
2018-12-10T00:16:21.298Z,6.30
2018-12-10T00:17:21.284Z,6.33
2018-12-10T00:18:21.275Z,6.27
2018-12-10T00:19:21.300Z,6.28
2018-12-10T00:20:21.257Z,6.28
2018-12-10T00:21:21.243Z,6.27
2018-12-10T00:22:21.232Z,6.30
2018-12-10T00:23:21.220Z,6.27
2018-12-10T00:24:21.209Z,6.27
2018-12-10T00:25:21.237Z,6.27
2018-12-10T00:26:21.190Z,6.22
2018-12-10T00:27:21.178Z,6.25
2018-12-10T00:28:21.166Z,6.27
2018-12-10T00:29:21.157Z,6.27
2018-12-10T00:30:21.142Z,6.18
2018-12-10T00:31:21.179Z,6.22
2018-12-10T00:32:21.123Z,6.22
2018-12-10T00:33:21.112Z,6.25
2018-12-10T00:34:21.102Z,6.25
2018-12-10T00:35:21.089Z,6.22
2018-12-10T00:36:21.078Z,6.27
2018-12-10T00:37:21.106Z,6.15
2018-12-10T00:38:21.061Z,6.19
2018-12-10T00:39:21.073Z,6.28
2018-12-10T00:40:21.034Z,6.21
2018-12-10T00:41:21.028Z,6.22
2018-12-10T00:42:21.015Z,6.30
2018-12-10T00:43:21.041Z,6.30
2018-12-10T00:44:20.993Z,6.22
2018-12-10T00:45:20.995Z,6.30
2018-12-10T00:46:22.610Z,6.25
2018-12-10T00:47:20.960Z,6.25
2018-12-10T00:48:20.947Z,6.22
2018-12-10T00:49:20.972Z,6.28
2018-12-10T00:50:20.927Z,6.21
2018-12-10T00:51:20.916Z,6.17
2018-12-10T00:52:20.906Z,6.12
2018-12-10T00:53:20.901Z,6.21
2018-12-10T00:54:20.884Z,6.22
2018-12-10T00:55:20.909Z,6.25
2018-12-10T00:56:20.869Z,6.28
2018-12-10T00:57:20.849Z,6.25
2018-12-10T00:58:20.841Z,6.22
2018-12-10T00:59:20.825Z,6.22
2018-12-10T01:00:20.819Z,6.19
2018-12-10T01:01:20.842Z,6.21
2018-12-10T01:02:20.795Z,6.18
2018-12-10T01:03:20.786Z,6.19
2018-12-10T01:04:20.776Z,6.19
2018-12-10T01:05:20.764Z,6.15
2018-12-10T01:06:20.754Z,6.15
2018-12-10T01:07:20.782Z,6.15
2018-12-10T01:08:20.734Z,5.97
2018-12-10T01:09:20.723Z,6.08
2018-12-10T01:10:20.709Z,6.01
2018-12-10T01:11:20.700Z,6.03
2018-12-10T01:12:20.689Z,6.01
2018-12-10T01:13:20.713Z,6.00
2018-12-10T01:14:20.667Z,6.09
2018-12-10T01:15:20.657Z,6.04
2018-12-10T01:16:20.644Z,6.04
2018-12-10T01:17:20.638Z,5.96
2018-12-10T01:18:20.625Z,5.90
2018-12-10T01:19:20.652Z,6.01
2018-12-10T01:20:20.603Z,5.91
2018-12-10T01:21:20.594Z,5.96
2018-12-10T01:22:20.583Z,5.93
2018-12-10T01:23:20.571Z,5.93
2018-12-10T01:24:20.560Z,5.79
2018-12-10T01:25:20.593Z,5.81
2018-12-10T01:26:20.538Z,5.82
2018-12-10T01:27:20.533Z,5.85
2018-12-10T01:28:20.519Z,5.83
2018-12-10T01:29:20.508Z,5.79
2018-12-10T01:30:20.499Z,5.85
2018-12-10T01:31:20.522Z,5.86
2018-12-10T01:32:20.476Z,5.86
2018-12-10T01:33:20.465Z,5.78
2018-12-10T01:34:20.471Z,5.72
2018-12-10T01:35:20.443Z,5.75
2018-12-10T01:36:20.436Z,5.75
2018-12-10T01:37:20.459Z,5.71
2018-12-10T01:38:20.462Z,5.76
2018-12-10T01:39:20.399Z,5.74
2018-12-10T01:40:20.389Z,5.68
2018-12-10T01:41:20.381Z,5.71
2018-12-10T01:42:20.368Z,5.74
2018-12-10T01:43:20.398Z,5.74
2018-12-10T01:44:20.345Z,5.74
2018-12-10T01:45:20.336Z,5.71
2018-12-10T01:46:20.330Z,5.75
2018-12-10T01:47:20.313Z,5.71
2018-12-10T01:48:20.307Z,5.71
2018-12-10T01:49:20.329Z,5.72
2018-12-10T01:50:20.284Z,5.72
2018-12-10T01:51:20.272Z,5.74
2018-12-10T01:52:20.259Z,5.75
2018-12-10T01:53:20.249Z,5.74
2018-12-10T01:54:20.237Z,5.75
2018-12-10T01:55:20.262Z,5.75
2018-12-10T01:56:20.215Z,5.75
2018-12-10T01:57:20.206Z,5.81
2018-12-10T01:58:20.211Z,5.74
2018-12-10T01:59:20.182Z,5.76
2018-12-10T02:00:20.175Z,5.76
2018-12-10T02:01:20.198Z,5.75
2018-12-10T02:02:20.153Z,5.78
2018-12-10T02:03:20.143Z,5.72
2018-12-10T02:04:20.128Z,5.74
2018-12-10T02:05:20.117Z,5.74
2018-12-10T02:06:20.108Z,5.71
2018-12-10T02:07:20.137Z,5.71
2018-12-10T02:08:20.085Z,5.79
2018-12-10T02:09:20.074Z,5.76
2018-12-10T02:10:20.070Z,5.61
2018-12-10T02:11:20.054Z,5.63
2018-12-10T02:12:20.043Z,5.63
2018-12-10T02:13:20.068Z,5.60
2018-12-10T02:14:20.021Z,5.61
2018-12-10T02:15:20.013Z,5.65
2018-12-10T02:16:19.999Z,5.65
2018-12-10T02:17:19.991Z,5.65
2018-12-10T02:18:19.981Z,5.68
2018-12-10T02:19:20.005Z,5.64
2018-12-10T02:20:19.958Z,5.51
2018-12-10T02:21:19.947Z,5.68
2018-12-10T02:22:19.937Z,5.56
2018-12-10T02:23:19.924Z,5.58
2018-12-10T02:24:19.915Z,5.51
2018-12-10T02:25:19.941Z,5.56
2018-12-10T02:26:19.896Z,5.57
2018-12-10T02:27:19.884Z,5.61
2018-12-10T02:28:19.874Z,5.51
2018-12-10T02:29:19.861Z,5.51
2018-12-10T02:30:19.851Z,5.49
2018-12-10T02:31:19.878Z,5.48
2018-12-10T02:32:19.836Z,5.46
2018-12-10T02:33:19.818Z,5.38
2018-12-10T02:34:19.807Z,5.48
2018-12-10T02:35:19.798Z,5.48
2018-12-10T02:36:19.784Z,5.46
2018-12-10T02:37:19.820Z,5.40
2018-12-10T02:38:19.762Z,5.40
2018-12-10T02:39:19.755Z,5.43
2018-12-10T02:40:19.745Z,5.49
2018-12-10T02:41:19.731Z,5.40
2018-12-10T02:42:19.721Z,5.53
2018-12-10T02:43:19.754Z,5.38
2018-12-10T02:44:19.702Z,5.43
2018-12-10T02:45:19.687Z,5.46
2018-12-10T02:46:19.678Z,5.48
2018-12-10T02:47:19.667Z,5.38
2018-12-10T02:48:19.656Z,5.46
2018-12-10T02:49:19.688Z,5.43
2018-12-10T02:50:19.634Z,5.46
2018-12-10T02:51:19.621Z,5.45
2018-12-10T02:52:19.614Z,5.43
2018-12-10T02:53:19.600Z,5.45
2018-12-10T02:54:19.590Z,5.48
2018-12-10T02:55:19.617Z,5.45
2018-12-10T02:56:19.570Z,5.42
2018-12-10T02:57:19.557Z,5.51
2018-12-10T02:58:19.545Z,5.51
2018-12-10T02:59:19.536Z,5.43
2018-12-10T03:00:19.533Z,5.43
2018-12-10T03:01:19.553Z,5.40
2018-12-10T03:02:19.502Z,5.45
2018-12-10T03:03:19.491Z,5.51
2018-12-10T03:04:19.483Z,5.45
2018-12-10T03:05:19.469Z,5.49
2018-12-10T03:06:19.462Z,5.49
2018-12-10T03:07:19.484Z,5.49
2018-12-10T03:08:19.436Z,5.43
2018-12-10T03:09:19.425Z,5.39
2018-12-10T03:10:19.419Z,5.46
2018-12-10T03:11:19.405Z,5.35
2018-12-10T03:12:19.394Z,5.43
2018-12-10T03:13:19.417Z,5.38
2018-12-10T03:14:19.372Z,5.39
2018-12-10T03:15:19.359Z,5.39
2018-12-10T03:16:19.348Z,5.36
2018-12-10T03:17:19.338Z,5.46
2018-12-10T03:18:19.332Z,5.40
2018-12-10T03:19:19.349Z,5.40
2018-12-10T03:20:19.308Z,5.49
2018-12-10T03:21:19.294Z,5.48
2018-12-10T03:22:19.382Z,5.39
2018-12-10T03:23:19.272Z,5.51
2018-12-10T03:24:19.265Z,5.49
2018-12-10T03:25:19.289Z,5.43
2018-12-10T03:26:19.238Z,5.42
2018-12-10T03:27:19.226Z,5.46
2018-12-10T03:28:19.235Z,5.38
2018-12-10T03:29:19.204Z,5.45
2018-12-10T03:30:19.206Z,5.38
2018-12-10T03:31:19.242Z,5.49
2018-12-10T03:32:19.179Z,5.46
2018-12-10T03:33:19.161Z,5.42
2018-12-10T03:34:19.149Z,5.43
2018-12-10T03:35:19.142Z,5.49
2018-12-10T03:36:19.132Z,5.49
2018-12-10T03:37:19.151Z,5.43
2018-12-10T03:38:19.104Z,5.49
2018-12-10T03:39:19.096Z,5.51
2018-12-10T03:40:19.085Z,5.42
2018-12-10T03:41:19.074Z,5.46
2018-12-10T03:42:19.063Z,5.49
2018-12-10T03:43:19.088Z,5.51
2018-12-10T03:44:19.040Z,5.51
2018-12-10T03:45:19.031Z,5.49
2018-12-10T03:46:19.018Z,5.51
2018-12-10T03:47:19.009Z,5.46
2018-12-10T03:48:19.000Z,5.48
2018-12-10T03:49:19.042Z,5.49
2018-12-10T03:50:18.978Z,5.49
2018-12-10T03:51:18.963Z,5.43
2018-12-10T03:52:18.955Z,5.53
2018-12-10T03:53:18.948Z,5.53
2018-12-10T03:54:18.929Z,5.40
2018-12-10T03:55:18.965Z,5.46
2018-12-10T03:56:18.910Z,5.45
2018-12-10T03:57:18.898Z,5.45
2018-12-10T03:58:18.892Z,5.53
2018-12-10T03:59:18.874Z,5.53
2018-12-10T04:00:18.861Z,5.51
2018-12-10T04:01:18.886Z,5.54
2018-12-10T04:02:18.841Z,5.57
2018-12-10T04:03:18.837Z,5.51
2018-12-10T04:04:18.818Z,5.61
2018-12-10T04:05:18.809Z,5.63
2018-12-10T04:06:18.798Z,5.58
2018-12-10T04:07:18.824Z,5.54
2018-12-10T04:08:18.778Z,5.56
2018-12-10T04:09:18.766Z,5.48
2018-12-10T04:10:18.759Z,5.46
2018-12-10T04:11:18.742Z,5.53
2018-12-10T04:12:18.733Z,5.49
2018-12-10T04:13:18.755Z,5.49
2018-12-10T04:14:18.711Z,5.53
2018-12-10T04:15:18.702Z,5.53
2018-12-10T04:16:18.689Z,5.53
2018-12-10T04:17:18.679Z,5.51
2018-12-10T04:18:18.667Z,5.54
2018-12-10T04:19:18.694Z,5.46
2018-12-10T04:20:18.644Z,5.43
2018-12-10T04:21:18.633Z,5.46
2018-12-10T04:22:18.621Z,5.49
2018-12-10T04:23:18.608Z,5.51
2018-12-10T04:24:18.598Z,5.48
2018-12-10T04:25:18.625Z,5.46
2018-12-10T04:26:18.579Z,5.51
2018-12-10T04:27:18.568Z,5.53
2018-12-10T04:28:18.562Z,5.53
2018-12-10T04:29:18.547Z,5.51
2018-12-10T04:30:18.647Z,5.54
2018-12-10T04:31:18.559Z,5.48
2018-12-10T04:32:18.510Z,5.56
2018-12-10T04:33:18.501Z,5.48
2018-12-10T04:34:18.492Z,5.56
2018-12-10T04:35:18.479Z,5.48
2018-12-10T04:36:18.467Z,5.46
2018-12-10T04:37:18.492Z,5.46
2018-12-10T04:38:18.453Z,5.49
2018-12-10T04:39:18.439Z,5.48
2018-12-10T04:40:18.430Z,5.51
2018-12-10T04:41:18.413Z,5.48
2018-12-10T04:42:18.402Z,5.51
2018-12-10T04:43:18.425Z,5.51
2018-12-10T04:44:18.379Z,5.56
2018-12-10T04:45:18.369Z,5.54
2018-12-10T04:46:18.359Z,5.46
2018-12-10T04:47:18.346Z,5.49
2018-12-10T04:48:18.336Z,5.56
2018-12-10T04:49:18.360Z,5.57
2018-12-10T04:50:18.316Z,5.51
2018-12-10T04:51:18.300Z,5.56
2018-12-10T04:52:18.293Z,5.60
2018-12-10T04:53:18.279Z,5.57
2018-12-10T04:54:18.271Z,5.53
2018-12-10T04:55:18.294Z,5.57
2018-12-10T04:56:18.246Z,5.54
2018-12-10T04:57:18.235Z,5.49
2018-12-10T04:58:18.224Z,5.48
2018-12-10T04:59:18.215Z,5.49
2018-12-10T05:00:18.204Z,5.51
2018-12-10T05:01:18.301Z,5.40
2018-12-10T05:02:18.185Z,5.42
2018-12-10T05:03:18.170Z,5.48
2018-12-10T05:04:18.157Z,5.54
2018-12-10T05:05:18.150Z,5.48
2018-12-10T05:06:18.136Z,5.45
2018-12-10T05:07:18.163Z,5.40
2018-12-10T05:08:18.113Z,5.40
2018-12-10T05:09:18.103Z,5.46
2018-12-10T05:10:18.103Z,5.43
2018-12-10T05:11:18.081Z,5.43
2018-12-10T05:12:18.071Z,5.49
2018-12-10T05:13:18.098Z,5.48
2018-12-10T05:14:18.047Z,5.46
2018-12-10T05:15:18.035Z,5.43
2018-12-10T05:16:18.024Z,5.39
2018-12-10T05:17:18.013Z,5.51
2018-12-10T05:18:18.001Z,5.46
2018-12-10T05:19:18.044Z,5.45
2018-12-10T05:20:17.981Z,5.48
2018-12-10T05:21:17.969Z,5.48
2018-12-10T05:22:17.960Z,5.51
2018-12-10T05:23:18.030Z,5.40
2018-12-10T05:24:17.937Z,5.51
2018-12-10T05:25:17.962Z,5.51
2018-12-10T05:26:17.929Z,5.51
2018-12-10T05:27:17.903Z,5.53
2018-12-10T05:28:17.892Z,5.48
2018-12-10T05:29:17.879Z,5.49
2018-12-10T05:30:17.868Z,5.54
2018-12-10T05:31:17.883Z,5.51
2018-12-10T05:32:17.846Z,5.51
2018-12-10T05:33:17.837Z,5.49
2018-12-10T05:34:17.878Z,5.49
2018-12-10T05:35:17.818Z,5.42
2018-12-10T05:36:17.843Z,5.49
2018-12-10T05:37:17.791Z,5.45
2018-12-10T05:38:17.783Z,5.43
2018-12-10T05:39:17.770Z,5.39
2018-12-10T05:40:17.759Z,5.48
2018-12-10T05:41:17.747Z,5.40
2018-12-10T05:42:17.765Z,5.43
2018-12-10T05:43:17.726Z,5.46
2018-12-10T05:44:17.715Z,5.33
2018-12-10T05:45:17.703Z,5.53
2018-12-10T05:46:17.691Z,5.39
2018-12-10T05:47:17.719Z,5.31
2018-12-10T05:48:17.687Z,5.45
2018-12-10T05:49:17.659Z,5.46
2018-12-10T05:50:17.646Z,5.46
2018-12-10T05:51:17.635Z,5.48
2018-12-10T05:52:17.626Z,5.53
2018-12-10T05:53:17.650Z,5.48
2018-12-10T05:54:17.607Z,5.46
2018-12-10T05:55:17.592Z,5.49
2018-12-10T05:56:17.584Z,5.35
2018-12-10T05:57:17.572Z,5.35
2018-12-10T05:58:17.828Z,5.48
2018-12-10T05:59:17.572Z,5.36
2018-12-10T06:00:17.540Z,5.51
2018-12-10T06:01:17.527Z,5.48
2018-12-10T06:02:17.514Z,5.38
2018-12-10T06:03:17.502Z,5.45
2018-12-10T06:04:17.528Z,5.38
2018-12-10T06:05:17.480Z,5.40
2018-12-10T06:06:17.471Z,5.39
2018-12-10T06:07:17.458Z,5.38
2018-12-10T06:08:17.449Z,5.33
2018-12-10T06:09:17.479Z,5.35
2018-12-10T06:10:17.425Z,5.39
2018-12-10T06:11:17.416Z,5.40
2018-12-10T06:12:17.404Z,5.40
2018-12-10T06:13:17.390Z,5.40
2018-12-10T06:14:17.381Z,5.31
2018-12-10T06:15:17.406Z,5.38
2018-12-10T06:16:17.358Z,5.39
2018-12-10T06:17:17.345Z,5.31
2018-12-10T06:18:17.334Z,5.31
2018-12-10T06:19:17.327Z,5.38
2018-12-10T06:20:17.312Z,5.39
2018-12-10T06:21:17.338Z,5.28
2018-12-10T06:22:17.292Z,5.40
2018-12-10T06:23:17.283Z,5.28
2018-12-10T06:24:17.272Z,5.27
2018-12-10T06:25:17.263Z,5.20
2018-12-10T06:26:17.246Z,5.27
2018-12-10T06:27:17.271Z,5.27
2018-12-10T06:28:17.227Z,5.24
2018-12-10T06:29:17.217Z,5.25
2018-12-10T06:30:17.207Z,5.27
2018-12-10T06:31:17.191Z,5.21
2018-12-10T06:32:17.180Z,5.12
2018-12-10T06:33:17.210Z,5.15
2018-12-10T06:34:17.158Z,5.15
2018-12-10T06:35:17.148Z,5.17
2018-12-10T06:36:17.136Z,5.00
2018-12-10T06:37:17.124Z,5.06
2018-12-10T06:38:17.118Z,5.02
2018-12-10T06:39:17.251Z,5.06
2018-12-10T06:40:17.095Z,5.15
2018-12-10T06:41:17.081Z,5.10
2018-12-10T06:42:17.072Z,5.04
2018-12-10T06:43:17.059Z,5.03
2018-12-10T06:44:17.047Z,5.03
2018-12-10T06:45:17.073Z,5.07
2018-12-10T06:46:17.024Z,4.96
2018-12-10T06:47:17.013Z,5.00
2018-12-10T06:48:17.004Z,4.96
2018-12-10T06:49:16.991Z,4.92
2018-12-10T06:50:16.979Z,4.92
2018-12-10T06:51:17.004Z,4.89
2018-12-10T06:52:16.959Z,4.96
2018-12-10T06:53:16.947Z,4.88
2018-12-10T06:54:16.935Z,4.89
2018-12-10T06:55:16.925Z,4.92
2018-12-10T06:56:16.915Z,4.88
2018-12-10T06:57:16.940Z,4.88
2018-12-10T06:58:16.893Z,4.92
2018-12-10T06:59:16.880Z,4.80
2018-12-10T07:00:16.869Z,4.92
2018-12-10T07:01:16.861Z,4.97
2018-12-10T07:02:16.853Z,4.89
2018-12-10T07:03:16.875Z,4.91
2018-12-10T07:04:16.826Z,4.92
2018-12-10T07:05:16.813Z,4.94
2018-12-10T07:06:16.807Z,4.91
2018-12-10T07:07:16.791Z,4.85
2018-12-10T07:08:16.799Z,4.88
2018-12-10T07:09:16.807Z,4.92
2018-12-10T07:10:16.793Z,4.86
2018-12-10T07:11:16.749Z,4.96
2018-12-10T07:12:16.736Z,4.86
2018-12-10T07:13:16.729Z,4.94
2018-12-10T07:14:16.716Z,4.85
2018-12-10T07:15:16.742Z,4.88
2018-12-10T07:16:16.692Z,4.91
2018-12-10T07:17:16.681Z,4.96
2018-12-10T07:18:16.671Z,4.86
2018-12-10T07:19:16.662Z,4.92
2018-12-10T07:20:16.651Z,4.91
2018-12-10T07:21:16.662Z,5.00
2018-12-10T07:22:16.628Z,4.85
2018-12-10T07:23:16.615Z,4.80
2018-12-10T07:24:16.605Z,4.89
2018-12-10T07:25:16.620Z,4.96
2018-12-10T07:26:16.582Z,4.96
2018-12-10T07:27:16.572Z,4.85
2018-12-10T07:28:16.563Z,4.92
2018-12-10T07:29:16.551Z,4.88
2018-12-10T07:30:16.574Z,4.86
2018-12-10T07:31:16.526Z,4.85
2018-12-10T07:32:16.517Z,4.86
2018-12-10T07:33:16.506Z,4.92
2018-12-10T07:34:16.493Z,4.86
2018-12-10T07:35:16.519Z,4.84
2018-12-10T07:36:16.471Z,4.92
2018-12-10T07:37:16.461Z,4.92
2018-12-10T07:38:16.449Z,4.97
2018-12-10T07:39:16.442Z,4.96
2018-12-10T07:40:16.427Z,4.88
2018-12-10T07:41:16.442Z,4.89
2018-12-10T07:42:16.406Z,4.88
2018-12-10T07:43:16.393Z,4.88
2018-12-10T07:44:16.383Z,4.85
2018-12-10T07:45:16.373Z,4.85
2018-12-10T07:46:16.408Z,4.94
2018-12-10T07:47:16.354Z,4.96
2018-12-10T07:48:16.448Z,4.94
2018-12-10T07:49:16.331Z,4.91
2018-12-10T07:50:16.341Z,4.86
2018-12-10T07:51:16.304Z,5.02
2018-12-10T07:52:16.294Z,4.96
2018-12-10T07:53:16.288Z,4.92
2018-12-10T07:54:16.274Z,4.94
2018-12-10T07:55:16.298Z,4.94
2018-12-10T07:56:16.252Z,4.94
2018-12-10T07:57:16.241Z,4.82
2018-12-10T07:58:16.269Z,4.97
2018-12-10T07:59:16.217Z,5.03
2018-12-10T08:00:16.207Z,5.00
2018-12-10T08:01:16.218Z,4.97
2018-12-10T08:02:16.185Z,4.97
2018-12-10T08:03:16.194Z,4.94
2018-12-10T08:04:16.160Z,4.89
2018-12-10T08:05:16.149Z,4.91
2018-12-10T08:06:16.164Z,4.89
2018-12-10T08:07:16.129Z,4.94
2018-12-10T08:08:16.118Z,4.92
2018-12-10T08:09:16.105Z,4.92
2018-12-10T08:10:16.133Z,4.96
2018-12-10T08:11:16.085Z,5.00
2018-12-10T08:12:16.073Z,4.94
2018-12-10T08:13:16.062Z,4.94
2018-12-10T08:14:16.054Z,5.00
2018-12-10T08:15:16.040Z,4.96
2018-12-10T08:16:16.098Z,5.04
2018-12-10T08:17:16.026Z,5.04
2018-12-10T08:18:16.006Z,5.00
2018-12-10T08:19:15.998Z,5.10
2018-12-10T08:20:16.008Z,5.06
2018-12-10T08:21:15.973Z,5.03
2018-12-10T08:22:15.968Z,5.02
2018-12-10T08:23:15.956Z,5.07
2018-12-10T08:24:15.939Z,5.09
2018-12-10T08:25:15.953Z,5.13
2018-12-10T08:26:15.917Z,5.06
2018-12-10T08:27:15.906Z,5.10
2018-12-10T08:28:15.895Z,5.07
2018-12-10T08:29:15.885Z,5.07
2018-12-10T08:30:15.876Z,5.04
2018-12-10T08:31:15.888Z,5.06
2018-12-10T08:32:15.849Z,5.12
2018-12-10T08:33:15.840Z,5.07
2018-12-10T08:34:15.832Z,5.10
2018-12-10T08:35:15.840Z,5.00
2018-12-10T08:36:15.815Z,4.94
2018-12-10T08:37:15.793Z,5.02
2018-12-10T08:38:15.798Z,5.00
2018-12-10T08:39:15.833Z,4.99
2018-12-10T08:40:15.867Z,4.96
2018-12-10T08:41:15.750Z,5.04
2018-12-10T08:42:15.740Z,5.02
2018-12-10T08:43:15.728Z,5.03
2018-12-10T08:44:15.714Z,5.09
2018-12-10T08:45:15.731Z,4.92
2018-12-10T08:46:15.696Z,4.97
2018-12-10T08:47:16.447Z,4.86
2018-12-10T08:48:15.672Z,4.89
2018-12-10T08:49:15.661Z,4.94
2018-12-10T08:50:15.688Z,4.80
2018-12-10T08:51:15.786Z,4.92
2018-12-10T08:52:15.677Z,4.84
2018-12-10T08:53:15.618Z,4.78
2018-12-10T08:54:15.608Z,4.85
2018-12-10T08:55:15.606Z,4.88
2018-12-10T08:56:15.609Z,4.86
2018-12-10T08:57:15.750Z,4.85
2018-12-10T08:58:15.567Z,4.85
2018-12-10T08:59:15.557Z,4.84
2018-12-10T09:00:15.578Z,4.89
2018-12-10T09:01:15.531Z,4.86
2018-12-10T09:02:15.519Z,4.75
2018-12-10T09:03:15.508Z,4.78
2018-12-10T09:04:15.499Z,4.89
2018-12-10T09:05:15.486Z,4.78
2018-12-10T09:06:15.500Z,4.67
2018-12-10T09:07:15.463Z,4.80
2018-12-10T09:08:15.453Z,4.84
2018-12-10T09:09:15.441Z,4.77
2018-12-10T09:10:15.456Z,4.86
2018-12-10T09:11:15.446Z,4.77
2018-12-10T09:12:15.408Z,4.85
2018-12-10T09:13:15.398Z,4.86
2018-12-10T09:14:15.386Z,4.89
2018-12-10T09:15:15.427Z,4.84
2018-12-10T09:16:15.363Z,4.94
2018-12-10T09:17:15.354Z,4.86
2018-12-10T09:18:15.342Z,4.97
2018-12-10T09:19:15.332Z,4.99
2018-12-10T09:20:15.341Z,5.02
2018-12-10T09:21:15.332Z,4.99
2018-12-10T09:22:15.309Z,4.99
2018-12-10T09:23:15.285Z,4.92
2018-12-10T09:24:15.274Z,4.96
2018-12-10T09:25:15.290Z,4.97
2018-12-10T09:26:15.253Z,4.94
2018-12-10T09:27:15.241Z,4.97
2018-12-10T09:28:19.450Z,5.10
2018-12-10T09:29:15.233Z,5.07
2018-12-10T09:30:15.235Z,5.09
2018-12-10T09:31:15.199Z,5.12
2018-12-10T09:32:15.216Z,5.02
2018-12-10T09:33:15.176Z,5.06
2018-12-10T09:34:15.163Z,5.06
2018-12-10T09:35:15.178Z,5.12
2018-12-10T09:36:15.163Z,5.13
2018-12-10T09:37:15.129Z,5.06
2018-12-10T09:38:15.120Z,5.17
2018-12-10T09:39:15.176Z,5.20
2018-12-10T09:40:15.189Z,5.22
2018-12-10T09:41:15.086Z,5.28
2018-12-10T09:42:15.073Z,5.36
2018-12-10T09:43:15.064Z,5.36
2018-12-10T09:44:15.051Z,5.35
2018-12-10T09:45:15.067Z,5.24
2018-12-10T09:46:15.030Z,5.25
2018-12-10T09:47:15.020Z,5.24
2018-12-10T09:48:15.008Z,5.24
2018-12-10T09:49:14.996Z,5.30
2018-12-10T09:50:15.011Z,5.30
2018-12-10T09:51:14.973Z,5.33
2018-12-10T09:52:14.967Z,5.42
2018-12-10T09:53:14.955Z,5.40
2018-12-10T09:54:14.977Z,5.31
2018-12-10T09:55:14.972Z,5.28
2018-12-10T09:56:14.922Z,5.40
2018-12-10T09:57:14.908Z,5.36
2018-12-10T09:58:14.898Z,5.40
2018-12-10T09:59:14.913Z,5.36
2018-12-10T10:00:14.881Z,5.48
2018-12-10T10:01:14.893Z,5.42
2018-12-10T10:02:14.854Z,5.38
2018-12-10T10:03:14.844Z,5.42
2018-12-10T10:04:14.834Z,5.40
2018-12-10T10:05:14.823Z,5.42
2018-12-10T10:06:14.838Z,5.43
2018-12-10T10:07:14.800Z,5.38
2018-12-10T10:08:14.791Z,5.35
2018-12-10T10:09:14.780Z,5.45
2018-12-10T10:10:14.772Z,5.40
2018-12-10T10:11:14.782Z,5.46
2018-12-10T10:12:14.746Z,5.49
2018-12-10T10:13:14.736Z,5.54
2018-12-10T10:14:14.731Z,5.61
2018-12-10T10:15:14.748Z,5.65
2018-12-10T10:16:14.704Z,5.51
2018-12-10T10:17:14.693Z,5.58
2018-12-10T10:18:14.681Z,5.58
2018-12-10T10:19:14.675Z,5.48
2018-12-10T10:20:14.659Z,5.51
2018-12-10T10:21:14.674Z,5.49
2018-12-10T10:22:14.642Z,5.61
2018-12-10T10:23:14.626Z,5.64
2018-12-10T10:24:14.622Z,5.56
2018-12-10T10:25:14.604Z,5.56
2018-12-10T10:26:14.619Z,5.53
2018-12-10T10:27:14.585Z,5.54
2018-12-10T10:28:14.572Z,5.58
2018-12-10T10:29:14.560Z,5.46
2018-12-10T10:30:14.573Z,5.51
2018-12-10T10:31:14.538Z,5.49
2018-12-10T10:32:14.527Z,5.49
2018-12-10T10:33:14.517Z,5.45
2018-12-10T10:34:14.506Z,5.60
2018-12-10T10:35:14.535Z,5.56
2018-12-10T10:36:14.485Z,5.72
2018-12-10T10:37:14.478Z,5.74
2018-12-10T10:38:15.262Z,5.83
2018-12-10T10:39:14.482Z,6.06
2018-12-10T10:40:14.441Z,6.11
2018-12-10T10:41:14.473Z,6.12
2018-12-10T10:42:14.420Z,6.25
2018-12-10T10:43:14.421Z,6.58
2018-12-10T10:44:14.399Z,6.66
2018-12-10T10:45:14.414Z,6.67
2018-12-10T10:46:14.400Z,6.88
2018-12-10T10:47:14.366Z,7.06
2018-12-10T10:48:14.383Z,6.80
2018-12-10T10:49:14.342Z,6.74
2018-12-10T10:50:14.331Z,6.55
2018-12-10T10:51:14.347Z,6.55
2018-12-10T10:52:14.310Z,6.54
2018-12-10T10:53:14.299Z,6.33
2018-12-10T10:54:14.288Z,6.19
2018-12-10T10:55:14.275Z,6.01
2018-12-10T10:56:14.295Z,5.99
2018-12-10T10:57:14.253Z,5.91
2018-12-10T10:58:14.243Z,5.94
2018-12-10T10:59:14.234Z,5.94
2018-12-10T11:00:14.227Z,5.89
2018-12-10T11:01:14.235Z,5.83
2018-12-10T11:02:14.197Z,5.78
2018-12-10T11:03:14.188Z,5.81
2018-12-10T11:04:14.179Z,5.76
2018-12-10T11:05:14.204Z,5.72
2018-12-10T11:06:14.178Z,5.79
2018-12-10T11:07:14.145Z,5.68
2018-12-10T11:08:14.131Z,5.78
2018-12-10T11:09:15.591Z,5.79
2018-12-10T11:10:14.110Z,5.76
2018-12-10T11:11:14.126Z,5.75
2018-12-10T11:12:14.089Z,5.68
2018-12-10T11:13:14.096Z,5.63
2018-12-10T11:14:14.071Z,5.63
2018-12-10T11:15:14.056Z,5.68
2018-12-10T11:16:14.071Z,5.63
2018-12-10T11:17:14.034Z,5.72
2018-12-10T11:18:14.025Z,5.75
2018-12-10T11:19:14.016Z,5.64
2018-12-10T11:20:14.006Z,5.63
2018-12-10T11:21:14.049Z,5.65
2018-12-10T11:22:13.984Z,5.76
2018-12-10T11:23:13.972Z,5.74
2018-12-10T11:24:13.963Z,5.75
2018-12-10T11:25:13.954Z,5.72
2018-12-10T11:26:13.972Z,5.71
2018-12-10T11:27:13.927Z,5.68
2018-12-10T11:28:13.919Z,5.68
2018-12-10T11:29:13.949Z,5.65
2018-12-10T11:30:14.037Z,5.65
2018-12-10T11:31:17.240Z,5.63
2018-12-10T11:32:13.873Z,5.64
2018-12-10T11:33:13.864Z,5.57
2018-12-10T11:34:13.854Z,5.60
2018-12-10T11:35:13.842Z,5.58
2018-12-10T11:36:13.868Z,5.60
2018-12-10T11:37:13.821Z,5.56
2018-12-10T11:38:13.811Z,5.51
2018-12-10T11:39:13.805Z,5.57
2018-12-10T11:40:13.788Z,5.54
2018-12-10T11:41:13.776Z,5.48
2018-12-10T11:42:13.807Z,5.53
2018-12-10T11:43:13.758Z,5.58
2018-12-10T11:44:20.939Z,5.53
2018-12-10T11:45:13.736Z,5.56
2018-12-10T11:46:13.725Z,5.48
2018-12-10T11:47:13.716Z,5.51
2018-12-10T11:48:13.743Z,5.46
2018-12-10T11:49:13.713Z,5.48
2018-12-10T11:50:13.709Z,5.51
2018-12-10T11:51:13.671Z,5.53
2018-12-10T11:52:13.662Z,5.63
2018-12-10T11:53:13.657Z,5.54
2018-12-10T11:54:13.676Z,5.56
2018-12-10T11:55:13.628Z,5.58
2018-12-10T11:56:13.620Z,5.56
2018-12-10T11:57:13.611Z,5.57
2018-12-10T11:58:13.601Z,5.63
2018-12-10T11:59:13.585Z,5.67
2018-12-10T12:00:13.634Z,5.61
2018-12-10T12:01:13.562Z,5.61
2018-12-10T12:02:13.553Z,5.61
2018-12-10T12:03:13.542Z,5.61
2018-12-10T12:04:13.533Z,5.64
2018-12-10T12:05:13.521Z,5.65
2018-12-10T12:06:13.547Z,5.67
2018-12-10T12:07:13.499Z,5.64
2018-12-10T12:08:13.488Z,5.71
2018-12-10T12:09:13.478Z,5.61
2018-12-10T12:10:13.474Z,5.64
2018-12-10T12:11:13.455Z,5.60
2018-12-10T12:12:13.484Z,5.71
2018-12-10T12:13:13.455Z,5.75
2018-12-10T12:14:13.423Z,5.76
2018-12-10T12:15:13.412Z,5.75
2018-12-10T12:16:13.405Z,5.76
2018-12-10T12:17:13.388Z,5.76
2018-12-10T12:18:13.418Z,5.78
2018-12-10T12:19:13.372Z,5.74
2018-12-10T12:20:13.360Z,5.76
2018-12-10T12:21:13.347Z,5.71
2018-12-10T12:22:13.345Z,5.71
2018-12-10T12:23:13.328Z,5.78
2018-12-10T12:24:13.349Z,5.72
2018-12-10T12:25:13.304Z,5.79
2018-12-10T12:26:13.292Z,5.74
2018-12-10T12:27:13.284Z,5.65
2018-12-10T12:28:13.270Z,5.65
2018-12-10T12:29:13.259Z,5.67
2018-12-10T12:30:13.286Z,5.67
2018-12-10T12:31:13.237Z,5.63
2018-12-10T12:32:13.230Z,5.53
2018-12-10T12:33:13.217Z,5.57
2018-12-10T12:34:13.206Z,5.58
2018-12-10T12:35:13.194Z,5.68
2018-12-10T12:36:13.246Z,5.67
2018-12-10T12:37:13.174Z,5.67
2018-12-10T12:38:13.163Z,5.61
2018-12-10T12:39:13.151Z,5.68
2018-12-10T12:40:13.143Z,5.53
2018-12-10T12:41:14.916Z,5.71
2018-12-10T12:42:13.156Z,5.60
2018-12-10T12:43:16.104Z,5.68
2018-12-10T12:44:13.099Z,5.63
2018-12-10T12:45:13.234Z,5.61
2018-12-10T12:46:13.076Z,5.64
2018-12-10T12:47:13.064Z,5.54
2018-12-10T12:48:13.096Z,5.58
2018-12-10T12:49:13.044Z,5.58
2018-12-10T12:50:13.128Z,5.61
2018-12-10T12:51:13.021Z,5.58
2018-12-10T12:52:13.012Z,5.56
2018-12-10T12:53:13.003Z,5.60
2018-12-10T12:54:13.027Z,5.58
2018-12-10T12:55:12.978Z,5.56
2018-12-10T12:56:12.968Z,5.57
2018-12-10T12:57:12.955Z,5.54
2018-12-10T12:58:12.944Z,5.56
2018-12-10T12:59:12.949Z,5.48
2018-12-10T13:00:12.957Z,5.48
2018-12-10T13:01:12.911Z,5.42
2018-12-10T13:02:12.901Z,5.54
2018-12-10T13:03:12.888Z,5.43
2018-12-10T13:04:12.877Z,5.46
2018-12-10T13:05:12.867Z,5.48
2018-12-10T13:06:12.891Z,5.43
2018-12-10T13:07:12.845Z,5.45
2018-12-10T13:08:12.839Z,5.38
2018-12-10T13:09:12.822Z,5.46
2018-12-10T13:10:12.813Z,5.39
2018-12-10T13:11:12.800Z,5.40
2018-12-10T13:12:12.830Z,5.46
2018-12-10T13:13:12.785Z,5.46
2018-12-10T13:14:12.765Z,5.42
2018-12-10T13:15:12.757Z,5.45
2018-12-10T13:16:12.745Z,5.46
2018-12-10T13:17:12.734Z,5.46
2018-12-10T13:18:12.762Z,5.35